^^
Station Historical Data
Daily Summary for April 12, 2017 Units:  English    Metric   Both
« Previous Day
Next Day »
Daily Weekly Monthly Yearly Custom
  High: Low: Average:
Temperature: 72.4 °F 55.7 °F 62.5 °F
Dew Point: 60.1 °F 42.8 °F 52 °F
Humidity: 93% 43% 70%
Wind Speed: 3.0mph 0.0mph 0.5mph
Wind Gust: 9.0mph - -
Wind- - SW
Pressure: 30.27 in 30.09 in -
Precipitation: 0.14 in    
Historical Graphs
 
 
Tabular Data for April 12, 2017
Time Temperature Dew Point Pressure Wind Wind Speed Wind Gust Humidity Rainfall Rate (Hourly) Conditions
00:00 59.3 °F 52.1 °F 30.11 in NNE 2.0 mph 3.0 mph 77% 0.00 in CLR
00:15 58.4 °F 51.9 °F 30.12 in Calm   3.0 mph 79% 0.00 in CLR
00:30 57.7 °F 51.6 °F 30.11 in Calm     80% 0.00 in CLR
00:45 57.6 °F 51.8 °F 30.12 in Calm     81% 0.00 in CLR
01:00 57.3 °F 51.9 °F 30.12 in Calm     82% 0.00 in CLR
02:15 58.1 °F 51.9 °F 30.10 in Calm     80% 0.00 in CLR
02:30 58.0 °F 51.9 °F 30.10 in Calm     80% 0.00 in CLR
02:45 59.6 °F 52.7 °F 30.09 in NE 2.0 mph 3.0 mph 78% 0.00 in CLR
03:00 59.3 °F 52.4 °F 30.09 in NNE 1.0 mph 2.0 mph 78% 0.00 in CLR
03:15 59.2 °F 52.6 °F 30.09 in Calm   2.0 mph 79% 0.00 in CLR
03:44 57.3 °F 51.9 °F 30.09 in Calm     82% 0.00 in
04:14 56.0 °F 51.6 °F 30.09 in Calm   1.0 mph 85% 0.00 in
04:44 55.7 °F 51.6 °F 30.10 in Calm   1.0 mph 86% 0.00 in
05:14 55.7 °F 51.6 °F 30.10 in Calm   1.0 mph 86% 0.00 in
05:44 56.8 °F 51.7 °F 30.10 in Calm     83% 0.00 in
06:15 58.5 °F 52.4 °F 30.11 in Calm   1.0 mph 80% 0.00 in CLR
06:30 58.8 °F 52.3 °F 30.11 in Calm   1.0 mph 79% 0.00 in CLR
06:45 58.3 °F 52.2 °F 30.11 in Calm   1.0 mph 80% 0.00 in CLR
07:00 57.2 °F 51.8 °F 30.11 in Calm   1.0 mph 82% 0.00 in CLR
07:15 56.9 °F 51.8 °F 30.12 in Calm     83% 0.00 in CLR
07:30 57.2 °F 52.4 °F 30.12 in Calm   1.0 mph 84% 0.00 in CLR
07:45 57.5 °F 52.7 °F 30.12 in Calm     84% 0.00 in CLR
08:00 58.4 °F 53.6 °F 30.12 in Calm     84% 0.00 in CLR
08:15 59.9 °F 53.7 °F 30.12 in Calm   1.0 mph 80% 0.00 in CLR
08:30 60.3 °F 53.4 °F 30.13 in Calm   2.0 mph 78% 0.00 in CLR
08:45 60.4 °F 53.5 °F 30.13 in Calm   1.0 mph 78% 0.00 in CLR
09:00 62.4 °F 54.3 °F 30.13 in Calm   2.0 mph 75% 0.00 in CLR
09:15 63.8 °F 54.2 °F 30.13 in NNW 1.0 mph 2.0 mph 71% 0.00 in SCT
09:30 63.2 °F 54.0 °F 30.14 in Calm   2.0 mph 72% 0.00 in SCT
09:45 63.4 °F 54.2 °F 30.14 in Calm   3.0 mph 72% 0.00 in SCT
10:00 63.9 °F 53.9 °F 30.15 in Calm   2.0 mph 70% 0.00 in SCT
10:15 64.0 °F 54.4 °F 30.15 in Calm   5.0 mph 71% 0.00 in BKN
10:30 63.3 °F 54.1 °F 30.17 in Calm   2.0 mph 72% 0.00 in BKN
10:45 62.5 °F 53.7 °F 30.18 in Calm   3.0 mph 73% 0.00 in BKN
11:00 62.2 °F 53.8 °F 30.19 in Calm   2.0 mph 74% 0.00 in BKN
11:15 61.5 °F 53.9 °F 30.20 in NE 1.0 mph 4.0 mph 76% 0.01 in RA
11:30 59.0 °F 54.8 °F 30.19 in NE 1.0 mph 7.0 mph 86% 0.05 in RA
11:45 59.1 °F 56.2 °F 30.19 in Calm   1.0 mph 90% 0.03 in RA
12:00 60.1 °F 57.8 °F 30.18 in Calm   2.0 mph 92% 0.00 in BKN
12:15 61.1 °F 58.1 °F 30.19 in Calm   2.0 mph 90% 0.00 in -RA
12:30 61.0 °F 58.0 °F 30.21 in West 1.0 mph 3.0 mph 90% 0.00 in -RA
12:45 59.8 °F 57.2 °F 30.20 in Calm   3.0 mph 91% 0.04 in -RA
13:00 59.5 °F 57.2 °F 30.18 in Calm   2.0 mph 92% 0.00 in -RA
13:15 59.9 °F 57.9 °F 30.17 in Calm   1.0 mph 93% 0.01 in -RA
13:30 60.5 °F 58.5 °F 30.15 in East 1.0 mph 2.0 mph 93% 0.00 in -RA
13:45 61.4 °F 59.0 °F 30.15 in Calm   3.0 mph 92% 0.00 in -RA
14:00 61.9 °F 58.6 °F 30.16 in Calm   3.0 mph 89% 0.00 in -RA
14:15 63.1 °F 60.1 °F 30.15 in Calm   3.0 mph 90% 0.00 in BKN
14:30 63.3 °F 59.1 °F 30.14 in Calm   3.0 mph 86% 0.00 in BKN
14:45 65.1 °F 57.3 °F 30.14 in NW 1.0 mph 5.0 mph 76% 0.00 in BKN
15:00 66.9 °F 56.4 °F 30.13 in West 2.0 mph 6.0 mph 69% 0.00 in BKN
15:15 67.4 °F 57.3 °F 30.13 in SW 1.0 mph 6.0 mph 70% 0.00 in SCT
15:30 68.4 °F 57.4 °F 30.13 in West 1.0 mph 3.0 mph 68% 0.00 in SCT
15:45 68.5 °F 56.7 °F 30.12 in SW 2.0 mph 6.0 mph 66% 0.00 in SCT
16:00 68.3 °F 56.1 °F 30.12 in West 1.0 mph 5.0 mph 65% 0.00 in SCT
16:15 69.2 °F 54.7 °F 30.12 in NW 2.0 mph 4.0 mph 60% 0.00 in FEW
16:30 69.9 °F 55.8 °F 30.12 in WNW 2.0 mph 6.0 mph 61% 0.00 in FEW
16:45 71.3 °F 54.3 °F 30.12 in West 2.0 mph 5.0 mph 55% 0.00 in FEW
17:00 72.2 °F 53.1 °F 30.12 in WSW 3.0 mph 6.0 mph 51% 0.00 in FEW
17:15 72.0 °F 52.9 °F 30.12 in Calm   7.0 mph 51% 0.00 in FEW
17:30 72.0 °F 52.9 °F 30.12 in Calm   4.0 mph 51% 0.00 in FEW
17:45 71.8 °F 52.7 °F 30.13 in West 1.0 mph 2.0 mph 51% 0.00 in FEW
18:00 72.4 °F 52.2 °F 30.13 in Calm   3.0 mph 49% 0.00 in FEW
18:15 72.0 °F 50.1 °F 30.13 in NW 3.0 mph 7.0 mph 46% 0.00 in SCT
18:30 71.2 °F 48.1 °F 30.14 in North 2.0 mph 7.0 mph 44% 0.00 in SCT
18:45 70.5 °F 47.5 °F 30.14 in North 1.0 mph 9.0 mph 44% 0.00 in SCT
19:00 69.7 °F 46.8 °F 30.15 in NNW 2.0 mph 5.0 mph 44% 0.00 in SCT
19:15 68.6 °F 45.2 °F 30.15 in NNE 1.0 mph 4.0 mph 43% 0.00 in FEW
19:30 67.6 °F 45.5 °F 30.16 in Calm   3.0 mph 45% 0.00 in FEW
19:45 66.7 °F 45.3 °F 30.17 in Calm   4.0 mph 46% 0.00 in FEW
20:00 65.9 °F 43.9 °F 30.17 in Calm   4.0 mph 45% 0.00 in FEW
20:15 64.9 °F 44.8 °F 30.18 in Calm   2.0 mph 48% 0.00 in FEW
20:30 62.8 °F 44.9 °F 30.19 in Calm     52% 0.00 in FEW
20:45 62.2 °F 44.8 °F 30.20 in Calm     53% 0.00 in FEW
21:00 62.8 °F 44.4 °F 30.20 in Calm   2.0 mph 51% 0.00 in FEW
21:15 63.3 °F 43.8 °F 30.21 in Calm   1.0 mph 49% 0.00 in CLR
21:30 63.3 °F 43.8 °F 30.21 in Calm   1.0 mph 49% 0.00 in CLR
21:45 63.1 °F 43.1 °F 30.22 in Calm   1.0 mph 48% 0.00 in CLR
22:00 62.8 °F 42.8 °F 30.22 in Calm   1.0 mph 48% 0.00 in CLR
22:15 62.8 °F 43.3 °F 30.23 in Calm   1.0 mph 49% 0.00 in CLR
22:30 62.1 °F 43.2 °F 30.24 in North 1.0 mph 5.0 mph 50% 0.00 in CLR
22:45 60.7 °F 45.8 °F 30.25 in NNW 3.0 mph 7.0 mph 58% 0.00 in CLR
23:00 59.0 °F 47.2 °F 30.25 in NNW 2.0 mph 8.0 mph 65% 0.00 in CLR
23:15 58.0 °F 47.5 °F 30.26 in North 1.0 mph 3.0 mph 68% 0.00 in CLR
23:30 57.0 °F 47.7 °F 30.26 in Calm   5.0 mph 71% 0.00 in CLR
23:45 55.8 °F 46.5 °F 30.27 in NW 2.0 mph 6.0 mph 71% 0.00 in CLR
TarryTown NY Weather
Compliments of Weather Underground - 1.5 mb